Time,TemperatureF,DewpointF,PressureIn,WindDirection,WindDirectionDegrees,WindSpeedMPH,WindSpeedGustMPH,Humidity,HourlyPrecipIn,Conditions,Clouds,dailyrainin,SolarRadiationWatts/m^2,SoftwareType,DateUTC
2013-04-24 00:12:00,27.0,5.0,-100.00,West,271,3.0,8.0,39,0.00,,,0.00,0.000000,,2013-04-24 06:12:00,
2013-04-24 00:21:00,27.0,5.0,-100.00,West,271,3.0,8.0,39,0.00,,,0.00,0.000000,,2013-04-24 06:21:00,
2013-04-24 00:32:00,27.0,5.0,-100.00,West,271,3.0,8.0,39,0.00,,,0.00,0.000000,,2013-04-24 06:32:00,
2013-04-24 00:41:00,27.0,5.0,-100.00,West,271,3.0,8.0,39,0.00,,,0.00,0.000000,,2013-04-24 06:41:00,
2013-04-24 00:50:00,27.0,8.0,-100.00,WSW,254,4.0,6.0,44,0.00,,,0.00,0.000000,,2013-04-24 06:50:00,
2013-04-24 01:11:00,27.0,8.0,-100.00,WSW,254,4.0,6.0,44,0.00,,,0.00,0.000000,,2013-04-24 07:11:00,
2013-04-24 01:22:00,27.0,8.0,-100.00,WSW,254,4.0,6.0,44,0.00,,,0.00,0.000000,,2013-04-24 07:22:00,
2013-04-24 01:32:00,27.0,8.0,-100.00,WSW,254,4.0,6.0,44,0.00,,,0.00,0.000000,,2013-04-24 07:32:00,
2013-04-24 01:41:00,27.0,8.0,-100.00,WSW,254,4.0,6.0,44,0.00,,,0.00,0.000000,,2013-04-24 07:41:00,
2013-04-24 01:50:00,27.0,6.0,-100.00,NW,310,3.0,5.0,41,0.00,,,0.00,0.000000,,2013-04-24 07:50:00,
2013-04-24 02:11:00,27.0,6.0,-100.00,NW,310,3.0,5.0,41,0.00,,,0.00,0.000000,,2013-04-24 08:11:00,
2013-04-24 02:21:00,27.0,6.0,-100.00,NW,310,3.0,5.0,41,0.00,,,0.00,0.000000,,2013-04-24 08:21:00,
2013-04-24 02:33:00,27.0,6.0,-100.00,NW,310,3.0,5.0,41,0.00,,,0.00,0.000000,,2013-04-24 08:33:00,
2013-04-24 02:42:00,27.0,6.0,-100.00,NW,310,3.0,5.0,41,0.00,,,0.00,0.000000,,2013-04-24 08:42:00,
2013-04-24 02:50:00,28.0,6.0,-100.00,WNW,283,3.0,5.0,38,0.00,,,0.00,0.000000,,2013-04-24 08:50:00,
2013-04-24 03:11:00,28.0,6.0,-100.00,WNW,283,3.0,5.0,38,0.00,,,0.00,0.000000,,2013-04-24 09:11:00,
2013-04-24 03:21:00,28.0,6.0,-100.00,WNW,283,3.0,5.0,38,0.00,,,0.00,0.000000,,2013-04-24 09:21:00,
2013-04-24 03:33:00,28.0,6.0,-100.00,WNW,283,3.0,5.0,38,0.00,,,0.00,0.000000,,2013-04-24 09:33:00,
2013-04-24 03:42:00,28.0,6.0,-100.00,WNW,283,3.0,5.0,38,0.00,,,0.00,0.000000,,2013-04-24 09:42:00,
2013-04-24 03:50:00,26.0,9.0,-100.00,WSW,244,4.0,5.0,48,0.00,,,0.00,0.000000,,2013-04-24 09:50:00,
2013-04-24 04:12:00,26.0,9.0,-100.00,WSW,244,4.0,5.0,48,0.00,,,0.00,0.000000,,2013-04-24 10:12:00,
2013-04-24 04:22:00,26.0,9.0,-100.00,WSW,244,4.0,5.0,48,0.00,,,0.00,0.000000,,2013-04-24 10:22:00,
2013-04-24 04:32:00,26.0,9.0,-100.00,WSW,244,4.0,5.0,48,0.00,,,0.00,0.000000,,2013-04-24 10:32:00,
2013-04-24 04:42:00,26.0,9.0,-100.00,WSW,244,4.0,5.0,48,0.00,,,0.00,0.000000,,2013-04-24 10:42:00,
2013-04-24 04:50:00,26.0,9.0,-100.00,West,268,4.0,6.0,49,0.00,,,0.00,0.000000,,2013-04-24 10:50:00,
2013-04-24 05:21:00,26.0,9.0,-100.00,West,268,4.0,6.0,49,0.00,,,0.00,0.000000,,2013-04-24 11:21:00,
2013-04-24 05:32:00,26.0,9.0,-100.00,West,268,4.0,6.0,49,0.00,,,0.00,0.000000,,2013-04-24 11:32:00,
2013-04-24 05:42:00,26.0,9.0,-100.00,West,268,4.0,6.0,49,0.00,,,0.00,0.000000,,2013-04-24 11:42:00,
2013-04-24 05:50:00,27.0,5.0,-100.00,West,279,4.0,9.0,39,0.00,,,0.00,0.000000,,2013-04-24 11:50:00,
2013-04-24 06:22:00,27.0,5.0,-100.00,West,279,4.0,9.0,39,0.00,,,0.00,0.000000,,2013-04-24 12:22:00,
2013-04-24 06:32:00,27.0,5.0,-100.00,West,279,4.0,9.0,39,0.00,,,0.00,0.000000,,2013-04-24 12:32:00,
2013-04-24 06:42:00,27.0,5.0,-100.00,West,279,4.0,9.0,39,0.00,,,0.00,0.000000,,2013-04-24 12:42:00,
2013-04-24 06:50:00,27.0,5.0,-100.00,West,271,6.0,9.0,38,0.00,,,0.00,5.000000,,2013-04-24 12:50:00,
2013-04-24 07:12:00,27.0,5.0,-100.00,West,271,6.0,9.0,38,0.00,,,0.00,5.000000,,2013-04-24 13:12:00,
2013-04-24 07:22:00,27.0,5.0,-100.00,West,271,6.0,9.0,38,0.00,,,0.00,5.000000,,2013-04-24 13:22:00,
2013-04-24 07:31:00,27.0,5.0,-100.00,West,271,6.0,9.0,38,0.00,,,0.00,5.000000,,2013-04-24 13:31:00,
2013-04-24 07:41:00,27.0,5.0,-100.00,West,271,6.0,9.0,38,0.00,,,0.00,5.000000,,2013-04-24 13:41:00,
2013-04-24 07:50:00,29.0,7.0,-100.00,West,261,4.0,11.0,39,0.00,,,0.00,81.000000,,2013-04-24 13:50:00,
2013-04-24 08:11:00,29.0,7.0,-100.00,West,261,4.0,11.0,39,0.00,,,0.00,81.000000,,2013-04-24 14:11:00,
2013-04-24 08:21:00,29.0,7.0,-100.00,West,261,4.0,11.0,39,0.00,,,0.00,81.000000,,2013-04-24 14:21:00,
2013-04-24 08:32:00,29.0,7.0,-100.00,West,261,4.0,11.0,39,0.00,,,0.00,81.000000,,2013-04-24 14:32:00,
2013-04-24 08:41:00,29.0,7.0,-100.00,West,261,4.0,11.0,39,0.00,,,0.00,81.000000,,2013-04-24 14:41:00,
2013-04-24 08:50:00,37.0,5.0,-100.00,WNW,303,1.0,7.0,26,0.00,,,0.00,259.000000,,2013-04-24 14:50:00,
2013-04-24 09:11:00,37.0,5.0,-100.00,WNW,303,1.0,7.0,26,0.00,,,0.00,259.000000,,2013-04-24 15:11:00,
2013-04-24 09:21:00,37.0,5.0,-100.00,WNW,303,1.0,7.0,26,0.00,,,0.00,259.000000,,2013-04-24 15:21:00,
2013-04-24 09:33:00,37.0,5.0,-100.00,WNW,303,1.0,7.0,26,0.00,,,0.00,259.000000,,2013-04-24 15:33:00,
2013-04-24 09:42:00,37.0,5.0,-100.00,WNW,303,1.0,7.0,26,0.00,,,0.00,259.000000,,2013-04-24 15:42:00,
2013-04-24 09:50:00,41.0,6.0,-100.00,East,83,2.0,7.0,23,0.00,,,0.00,421.000000,,2013-04-24 15:50:00,
2013-04-24 10:12:00,41.0,6.0,-100.00,East,83,2.0,7.0,23,0.00,,,0.00,421.000000,,2013-04-24 16:12:00,
2013-04-24 10:23:00,41.0,6.0,-100.00,East,83,2.0,7.0,23,0.00,,,0.00,421.000000,,2013-04-24 16:23:00,
2013-04-24 10:32:00,41.0,6.0,-100.00,East,83,2.0,7.0,23,0.00,,,0.00,421.000000,,2013-04-24 16:32:00,
2013-04-24 10:42:00,41.0,6.0,-100.00,East,83,2.0,7.0,23,0.00,,,0.00,421.000000,,2013-04-24 16:42:00,
2013-04-24 10:50:00,42.0,7.0,-100.00,ENE,73,5.0,12.0,23,0.00,,,0.00,602.000000,,2013-04-24 16:50:00,
2013-04-24 11:22:00,42.0,7.0,-100.00,ENE,73,5.0,12.0,23,0.00,,,0.00,602.000000,,2013-04-24 17:22:00,
2013-04-24 11:32:00,42.0,7.0,-100.00,ENE,73,5.0,12.0,23,0.00,,,0.00,602.000000,,2013-04-24 17:32:00,
2013-04-24 11:42:00,42.0,7.0,-100.00,ENE,73,5.0,12.0,23,0.00,,,0.00,602.000000,,2013-04-24 17:42:00,
2013-04-24 11:50:00,46.0,9.0,-100.00,East,91,3.0,13.0,22,0.00,,,0.00,845.000000,,2013-04-24 17:50:00,
2013-04-24 12:12:00,46.0,9.0,-100.00,East,91,3.0,13.0,22,0.00,,,0.00,845.000000,,2013-04-24 18:12:00,
2013-04-24 12:21:00,46.0,9.0,-100.00,East,91,3.0,13.0,22,0.00,,,0.00,845.000000,,2013-04-24 18:21:00,
2013-04-24 12:32:00,46.0,9.0,-100.00,East,91,3.0,13.0,22,0.00,,,0.00,845.000000,,2013-04-24 18:32:00,
2013-04-24 12:42:00,46.0,9.0,-100.00,East,91,3.0,13.0,22,0.00,,,0.00,845.000000,,2013-04-24 18:42:00,
2013-04-24 12:50:00,46.0,11.0,-100.00,NE,44,7.0,15.0,24,0.00,,,0.00,791.000000,,2013-04-24 18:50:00,
2013-04-24 13:21:00,46.0,11.0,-100.00,NE,44,7.0,15.0,24,0.00,,,0.00,791.000000,,2013-04-24 19:21:00,
2013-04-24 13:31:00,46.0,11.0,-100.00,NE,44,7.0,15.0,24,0.00,,,0.00,791.000000,,2013-04-24 19:31:00,
2013-04-24 13:42:00,46.0,11.0,-100.00,NE,44,7.0,15.0,24,0.00,,,0.00,791.000000,,2013-04-24 19:42:00,
2013-04-24 13:50:00,48.0,11.0,-100.00,NNE,19,6.0,16.0,22,0.00,,,0.00,926.000000,,2013-04-24 19:50:00,
2013-04-24 14:11:00,48.0,11.0,-100.00,NNE,19,6.0,16.0,22,0.00,,,0.00,926.000000,,2013-04-24 20:11:00,
2013-04-24 14:21:00,48.0,11.0,-100.00,NNE,19,6.0,16.0,22,0.00,,,0.00,926.000000,,2013-04-24 20:21:00,
2013-04-24 14:32:00,48.0,11.0,-100.00,NNE,19,6.0,16.0,22,0.00,,,0.00,926.000000,,2013-04-24 20:32:00,
2013-04-24 14:42:00,48.0,11.0,-100.00,NNE,19,6.0,16.0,22,0.00,,,0.00,926.000000,,2013-04-24 20:42:00,
2013-04-24 14:50:00,48.0,9.0,-100.00,NNE,24,2.0,21.0,20,0.00,,,0.00,891.000000,,2013-04-24 20:50:00,
2013-04-24 15:11:00,48.0,9.0,-100.00,NNE,24,2.0,21.0,20,0.00,,,0.00,891.000000,,2013-04-24 21:11:00,
2013-04-24 15:21:00,48.0,9.0,-100.00,NNE,24,2.0,21.0,20,0.00,,,0.00,891.000000,,2013-04-24 21:21:00,
2013-04-24 15:32:00,48.0,9.0,-100.00,NNE,24,2.0,21.0,20,0.00,,,0.00,891.000000,,2013-04-24 21:32:00,
2013-04-24 15:42:00,48.0,9.0,-100.00,NNE,24,2.0,21.0,20,0.00,,,0.00,891.000000,,2013-04-24 21:42:00,
2013-04-24 15:50:00,50.0,11.0,-100.00,NE,54,7.0,17.0,20,0.00,,,0.00,901.000000,,2013-04-24 21:50:00,
2013-04-24 16:12:00,50.0,11.0,-100.00,NE,54,7.0,17.0,20,0.00,,,0.00,901.000000,,2013-04-24 22:12:00,
2013-04-24 16:22:00,50.0,11.0,-100.00,NE,54,7.0,17.0,20,0.00,,,0.00,901.000000,,2013-04-24 22:22:00,
2013-04-24 16:33:00,50.0,11.0,-100.00,NE,54,7.0,17.0,20,0.00,,,0.00,901.000000,,2013-04-24 22:33:00,
2013-04-24 16:42:00,50.0,11.0,-100.00,NE,54,7.0,17.0,20,0.00,,,0.00,901.000000,,2013-04-24 22:42:00,
2013-04-24 16:50:00,48.0,8.0,-100.00,NNE,25,7.0,18.0,19,0.00,,,0.00,509.000000,,2013-04-24 22:50:00,
2013-04-24 17:12:00,48.0,8.0,-100.00,NNE,25,7.0,18.0,19,0.00,,,0.00,509.000000,,2013-04-24 23:12:00,
2013-04-24 17:21:00,48.0,8.0,-100.00,NNE,25,7.0,18.0,19,0.00,,,0.00,509.000000,,2013-04-24 23:21:00,
2013-04-24 17:32:00,48.0,8.0,-100.00,NNE,25,7.0,18.0,19,0.00,,,0.00,509.000000,,2013-04-24 23:32:00,
2013-04-24 17:42:00,48.0,8.0,-100.00,NNE,25,7.0,18.0,19,0.00,,,0.00,509.000000,,2013-04-24 23:42:00,
2013-04-24 17:50:00,44.0,8.0,-100.00,ENE,58,5.0,14.0,22,0.00,,,0.00,345.000000,,2013-04-24 23:50:00,
2013-04-24 18:12:00,44.0,8.0,-100.00,ENE,58,5.0,14.0,22,0.00,,,0.00,345.000000,,2013-04-25 00:12:00,
2013-04-24 18:22:00,44.0,8.0,-100.00,ENE,58,5.0,14.0,22,0.00,,,0.00,345.000000,,2013-04-25 00:22:00,
2013-04-24 18:32:00,44.0,8.0,-100.00,ENE,58,5.0,14.0,22,0.00,,,0.00,345.000000,,2013-04-25 00:32:00,
2013-04-24 18:41:00,44.0,8.0,-100.00,ENE,58,5.0,14.0,22,0.00,,,0.00,345.000000,,2013-04-25 00:41:00,
2013-04-24 18:50:00,47.0,8.0,-100.00,NNE,21,4.0,10.0,20,0.00,,,0.00,327.000000,,2013-04-25 00:50:00,
2013-04-24 19:22:00,47.0,8.0,-100.00,NNE,21,4.0,10.0,20,0.00,,,0.00,327.000000,,2013-04-25 01:22:00,
2013-04-24 19:32:00,47.0,8.0,-100.00,NNE,21,4.0,10.0,20,0.00,,,0.00,327.000000,,2013-04-25 01:32:00,
2013-04-24 19:42:00,47.0,8.0,-100.00,NNE,21,4.0,10.0,20,0.00,,,0.00,327.000000,,2013-04-25 01:42:00,
2013-04-24 19:50:00,40.0,10.0,-100.00,NNE,30,2.0,9.0,29,0.00,,,0.00,90.000000,,2013-04-25 01:50:00,
2013-04-24 20:11:00,40.0,10.0,-100.00,NNE,30,2.0,9.0,29,0.00,,,0.00,90.000000,,2013-04-25 02:11:00,
2013-04-24 20:22:00,40.0,10.0,-100.00,NNE,30,2.0,9.0,29,0.00,,,0.00,90.000000,,2013-04-25 02:22:00,
2013-04-24 20:32:00,40.0,10.0,-100.00,NNE,30,2.0,9.0,29,0.00,,,0.00,90.000000,,2013-04-25 02:32:00,
2013-04-24 20:42:00,40.0,10.0,-100.00,NNE,30,2.0,9.0,29,0.00,,,0.00,90.000000,,2013-04-25 02:42:00,
2013-04-24 20:50:00,32.0,9.0,-100.00,West,271,3.0,4.0,38,0.00,,,0.00,3.000000,,2013-04-25 02:50:00,
2013-04-24 21:22:00,32.0,9.0,-100.00,West,271,3.0,4.0,38,0.00,,,0.00,3.000000,,2013-04-25 03:22:00,
2013-04-24 21:33:00,32.0,9.0,-100.00,West,271,3.0,4.0,38,0.00,,,0.00,3.000000,,2013-04-25 03:33:00,
2013-04-24 21:42:00,32.0,9.0,-100.00,West,271,3.0,4.0,38,0.00,,,0.00,3.000000,,2013-04-25 03:42:00,
2013-04-24 21:50:00,32.0,11.0,-100.00,WSW,242,5.0,6.0,41,0.00,,,0.00,0.000000,,2013-04-25 03:50:00,
2013-04-24 22:22:00,32.0,11.0,-100.00,WSW,242,5.0,6.0,41,0.00,,,0.00,0.000000,,2013-04-25 04:22:00,
2013-04-24 22:32:00,32.0,11.0,-100.00,WSW,242,5.0,6.0,41,0.00,,,0.00,0.000000,,2013-04-25 04:32:00,
2013-04-24 22:43:00,32.0,11.0,-100.00,WSW,242,5.0,6.0,41,0.00,,,0.00,0.000000,,2013-04-25 04:43:00,
2013-04-24 22:50:00,30.0,13.0,-100.00,WSW,253,6.0,8.0,48,0.00,,,0.00,0.000000,,2013-04-25 04:50:00,
2013-04-24 23:21:00,30.0,13.0,-100.00,WSW,253,6.0,8.0,48,0.00,,,0.00,0.000000,,2013-04-25 05:21:00,
2013-04-24 23:32:00,30.0,13.0,-100.00,WSW,253,6.0,8.0,48,0.00,,,0.00,0.000000,,2013-04-25 05:32:00,
2013-04-24 23:42:00,30.0,13.0,-100.00,WSW,253,6.0,8.0,48,0.00,,,0.00,0.000000,,2013-04-25 05:42:00,
2013-04-24 23:50:00,28.0,13.0,-100.00,WSW,249,6.0,10.0,52,0.00,,,0.00,0.000000,,2013-04-25 05:50:00,